Time;durP1;ratioP1;P1;durP2;ratioP2;P2;SDS_P1;SDS_P2;PMS_P1;PMS_P2;Temp;Humidity;BMP_temperature;BMP_pressure;BME280_temperature;BME280_humidity;BME280_pressure;Samples;Min_cycle;Max_cycle;Signal;HPM_P1;HPM_P2
2021/10/07 00:00:39;;;;;;;;;;;8.50;99.90;;;;;;5046522;28;19915;-86
2021/10/07 00:03:05;;;;;;;;;;;8.50;99.90;;;;;;5067470;28;19915;-86
2021/10/07 00:05:31;;;;;;;;;;;8.40;99.90;;;;;;5040472;28;19909;-87
2021/10/07 00:07:56;;;;;;;;;;;8.50;99.90;;;;;;5048551;28;19908;-86
2021/10/07 00:10:22;;;;;;;;;;;8.50;99.90;;;;;;5053302;28;19917;-86
2021/10/07 00:12:47;;;;;;;;;;;8.40;99.90;;;;;;5056425;28;20007;-86
2021/10/07 00:15:13;;;;;;;;;;;8.40;99.90;;;;;;5034648;28;19909;-85
2021/10/07 00:17:38;;;;;;;;;;;8.40;99.90;;;;;;5047872;28;19960;-84
2021/10/07 00:20:05;;;;;;;;;;;8.40;99.90;;;;;;5054849;28;19962;-86
2021/10/07 00:22:30;;;;;;;;;;;8.40;99.90;;;;;;5035236;28;19908;-86
2021/10/07 00:24:56;;;;;;;;;;;8.40;99.90;;;;;;5054056;28;20287;-89
2021/10/07 00:27:21;;;;;;;;;;;8.30;99.90;;;;;;5053480;28;19962;-86
2021/10/07 00:29:50;;;;;;;;;;;8.30;99.90;;;;;;5051418;28;19920;-86
2021/10/07 00:32:19;;;;;;;;;;;8.40;99.90;;;;;;5053511;28;19908;-86
2021/10/07 00:40:14;;;;;;;;;;;8.40;99.90;;;;;;5072419;28;19915;-86
2021/10/07 00:42:40;;;;;;;;;;;8.40;99.90;;;;;;5053230;28;19913;-86
2021/10/07 00:45:07;;;;;;;;;;;8.40;99.90;;;;;;5054962;28;19915;-86
2021/10/07 00:47:33;;;;;;;;;;;8.40;99.90;;;;;;5041552;28;20390;-86
2021/10/07 00:49:58;;;;;;;;;;;8.40;99.90;;;;;;5041326;28;19913;-86
2021/10/07 00:52:24;;;;;;;;;;;8.40;99.90;;;;;;5053966;28;19964;-85
2021/10/07 00:54:52;;;;;;;;;;;8.40;99.90;;;;;;5053780;28;19916;-86
2021/10/07 00:57:19;;;;;;;;;;;8.40;99.90;;;;;;5062218;28;20027;-86
2021/10/07 00:59:45;;;;;;;;;;;8.40;99.90;;;;;;5047905;28;19913;-86
2021/10/07 01:02:10;;;;;;;;;;;8.40;99.90;;;;;;5047709;28;19965;-86
2021/10/07 01:04:36;;;;;;;;;;;8.40;99.90;;;;;;5047675;28;20006;-86
2021/10/07 01:07:02;;;;;;;;;;;8.40;99.90;;;;;;5047868;28;19909;-86
2021/10/07 01:09:28;;;;;;;;;;;8.40;99.90;;;;;;5043239;28;19917;-86
2021/10/07 01:11:54;;;;;;;;;;;8.40;99.90;;;;;;5054008;28;19915;-86
2021/10/07 01:14:44;;;;;;;;;;;8.40;99.90;;;;;;5037569;28;19909;-86
2021/10/07 01:17:13;;;;;;;;;;;8.40;99.90;;;;;;5052476;28;19935;-86
2021/10/07 01:19:40;;;;;;;;;;;8.40;99.90;;;;;;5052827;28;19915;-86
2021/10/07 01:22:05;;;;;;;;;;;8.40;99.90;;;;;;5053710;28;19916;-86
2021/10/07 01:24:31;;;;;;;;;;;8.40;99.90;;;;;;5070031;28;19909;-86
2021/10/07 01:26:56;;;;;;;;;;;8.40;99.90;;;;;;5067031;28;19909;-86
2021/10/07 01:29:22;;;;;;;;;;;8.40;99.90;;;;;;5050570;28;20015;-86
2021/10/07 01:31:47;;;;;;;;;;;8.40;99.90;;;;;;5055930;28;20315;-86
2021/10/07 01:34:19;;;;;;;;;;;8.40;99.90;;;;;;5054785;28;19958;-87
2021/10/07 01:36:44;;;;;;;;;;;8.40;99.90;;;;;;5060334;28;20307;-87
2021/10/07 01:39:10;;;;;;;;;;;8.40;99.90;;;;;;5057313;28;19916;-86
2021/10/07 01:41:35;;;;;;;;;;;8.40;99.90;;;;;;5057413;28;20000;-86
2021/10/07 01:44:01;;;;;;;;;;;8.40;99.90;;;;;;5063359;28;19912;-86
2021/10/07 01:46:26;;;;;;;;;;;8.40;99.90;;;;;;5043332;28;20356;-86
2021/10/07 01:48:52;;;;;;;;;;;8.40;99.90;;;;;;5051046;28;19909;-86
2021/10/07 01:51:17;;;;;;;;;;;8.50;99.90;;;;;;5050621;28;19913;-86
2021/10/07 01:53:43;;;;;;;;;;;8.50;99.90;;;;;;5050774;28;19931;-86
2021/10/07 01:56:08;;;;;;;;;;;8.50;99.90;;;;;;5055850;28;19915;-86
2021/10/07 01:58:34;;;;;;;;;;;8.40;99.90;;;;;;5050743;28;20019;-86
2021/10/07 02:00:59;;;;;;;;;;;8.40;99.90;;;;;;5050982;28;19920;-86
2021/10/07 02:03:25;;;;;;;;;;;8.40;99.90;;;;;;5055445;28;20410;-86
2021/10/07 02:05:50;;;;;;;;;;;8.40;99.90;;;;;;5051046;28;19944;-87
2021/10/07 02:08:15;;;;;;;;;;;8.40;99.90;;;;;;5051628;28;19915;-86
2021/10/07 02:10:41;;;;;;;;;;;8.40;99.90;;;;;;5056810;28;19973;-85
2021/10/07 02:13:07;;;;;;;;;;;8.30;99.90;;;;;;5056510;28;19995;-86
2021/10/07 02:15:32;;;;;;;;;;;8.30;99.90;;;;;;5059278;28;19953;-86
2021/10/07 02:17:58;;;;;;;;;;;8.30;99.90;;;;;;5043878;28;19931;-86
2021/10/07 02:20:23;;;;;;;;;;;8.30;99.90;;;;;;5057360;28;19909;-86
2021/10/07 02:22:49;;;;;;;;;;;8.20;99.90;;;;;;5056446;28;19920;-86
2021/10/07 02:25:14;;;;;;;;;;;8.20;99.90;;;;;;5056162;28;19913;-86
2021/10/07 02:27:40;;;;;;;;;;;8.20;99.90;;;;;;5074444;28;19915;-86
2021/10/07 02:30:10;;;;;;;;;;;8.20;99.90;;;;;;5044482;28;20038;-85
2021/10/07 02:32:35;;;;;;;;;;;8.20;99.90;;;;;;5055895;28;19919;-86
2021/10/07 02:35:01;;;;;;;;;;;8.20;99.90;;;;;;5067765;28;19909;-86
2021/10/07 02:37:27;;;;;;;;;;;8.20;99.90;;;;;;5056330;28;19931;-86
2021/10/07 02:39:52;;;;;;;;;;;8.20;99.90;;;;;;5056671;28;20332;-86
2021/10/07 02:42:18;;;;;;;;;;;8.20;99.90;;;;;;5064246;28;19916;-86
2021/10/07 02:44:43;;;;;;;;;;;8.20;99.90;;;;;;5058845;28;20445;-86
2021/10/07 02:47:09;;;;;;;;;;;8.20;99.90;;;;;;5063461;28;19935;-86
2021/10/07 02:49:34;;;;;;;;;;;8.20;99.90;;;;;;5039101;28;20003;-86
2021/10/07 02:51:59;;;;;;;;;;;8.20;99.90;;;;;;5053361;28;20368;-86
2021/10/07 02:54:25;;;;;;;;;;;8.20;99.90;;;;;;5072324;28;19909;-86
2021/10/07 02:56:51;;;;;;;;;;;8.30;99.90;;;;;;5068999;28;19917;-86
2021/10/07 02:59:17;;;;;;;;;;;8.30;99.90;;;;;;5053130;28;19908;-86
2021/10/07 03:01:42;;;;;;;;;;;8.30;99.90;;;;;;5052655;28;19985;-86
2021/10/07 03:04:08;;;;;;;;;;;8.30;99.90;;;;;;5056064;28;19920;-87
2021/10/07 03:06:33;;;;;;;;;;;8.30;99.90;;;;;;5055813;28;19915;-86
2021/10/07 03:08:59;;;;;;;;;;;8.30;99.90;;;;;;5065118;28;19919;-86
2021/10/07 03:11:24;;;;;;;;;;;8.30;99.90;;;;;;5056241;28;20369;-86
2021/10/07 03:13:50;;;;;;;;;;;8.30;99.90;;;;;;5052981;28;19935;-86
2021/10/07 03:16:15;;;;;;;;;;;8.20;99.90;;;;;;5042350;28;19909;-86
2021/10/07 03:18:41;;;;;;;;;;;8.30;99.90;;;;;;5049456;28;20345;-85
2021/10/07 03:21:06;;;;;;;;;;;8.20;99.90;;;;;;5049357;28;19909;-86
2021/10/07 03:23:32;;;;;;;;;;;8.20;99.90;;;;;;5049165;28;19912;-86
2021/10/07 03:25:57;;;;;;;;;;;8.20;99.90;;;;;;5067359;28;20368;-86
2021/10/07 03:28:23;;;;;;;;;;;8.20;99.90;;;;;;5055419;28;19908;-86
2021/10/07 03:30:48;;;;;;;;;;;8.20;99.90;;;;;;5073606;28;20014;-86
2021/10/07 03:33:14;;;;;;;;;;;8.20;99.90;;;;;;5055713;28;19908;-86
2021/10/07 03:35:39;;;;;;;;;;;8.20;99.90;;;;;;5055945;28;19912;-85
2021/10/07 03:38:05;;;;;;;;;;;8.20;99.90;;;;;;5055307;28;19944;-86
2021/10/07 03:40:30;;;;;;;;;;;8.20;99.90;;;;;;5072889;28;20289;-86
2021/10/07 03:42:56;;;;;;;;;;;8.20;99.90;;;;;;5072885;28;19950;-86
2021/10/07 03:45:22;;;;;;;;;;;8.20;99.90;;;;;;5040757;28;19909;-85
2021/10/07 03:47:47;;;;;;;;;;;8.10;99.90;;;;;;5055549;28;20400;-86
2021/10/07 03:50:13;;;;;;;;;;;8.10;99.90;;;;;;5053297;28;19913;-86
2021/10/07 03:52:39;;;;;;;;;;;8.10;99.90;;;;;;5071899;28;20316;-86
2021/10/07 03:55:05;;;;;;;;;;;8.10;99.90;;;;;;5054833;28;20054;-86
2021/10/07 03:57:30;;;;;;;;;;;8.10;99.90;;;;;;5054936;28;20300;-86
2021/10/07 03:59:56;;;;;;;;;;;8.00;99.90;;;;;;5071469;28;19908;-85
2021/10/07 04:02:21;;;;;;;;;;;8.10;99.90;;;;;;5064510;28;19931;-86
2021/10/07 04:04:47;;;;;;;;;;;8.10;99.90;;;;;;5072745;28;19908;-86
2021/10/07 04:07:13;;;;;;;;;;;8.10;99.90;;;;;;5054508;28;19909;-86
2021/10/07 04:09:38;;;;;;;;;;;8.10;99.90;;;;;;5054549;28;19916;-86
2021/10/07 04:12:04;;;;;;;;;;;8.10;99.90;;;;;;5052252;28;19912;-85
2021/10/07 04:14:30;;;;;;;;;;;8.00;99.90;;;;;;5048088;28;19970;-86
2021/10/07 04:16:55;;;;;;;;;;;8.00;99.90;;;;;;5043507;28;19916;-86
2021/10/07 04:19:22;;;;;;;;;;;8.00;99.90;;;;;;5039960;28;19909;-86
2021/10/07 04:21:48;;;;;;;;;;;8.00;99.90;;;;;;5048244;28;19909;-86
2021/10/07 04:24:13;;;;;;;;;;;8.00;99.90;;;;;;5043344;28;19931;-86
2021/10/07 04:26:39;;;;;;;;;;;8.00;99.90;;;;;;5054339;28;20376;-86
2021/10/07 04:29:04;;;;;;;;;;;8.00;99.90;;;;;;5046888;28;19917;-86
2021/10/07 04:31:30;;;;;;;;;;;8.00;99.90;;;;;;5048171;28;20183;-86
2021/10/07 04:33:55;;;;;;;;;;;8.00;99.90;;;;;;5048144;28;19931;-86
2021/10/07 04:36:21;;;;;;;;;;;8.00;99.90;;;;;;5066367;28;19912;-86
2021/10/07 04:38:46;;;;;;;;;;;8.00;99.90;;;;;;5054488;28;19958;-86
2021/10/07 04:41:12;;;;;;;;;;;8.10;99.90;;;;;;5052985;28;20335;-86
2021/10/07 04:43:38;;;;;;;;;;;8.10;99.90;;;;;;5035692;28;19913;-87
2021/10/07 04:46:04;;;;;;;;;;;8.00;99.90;;;;;;5053524;28;20003;-86
2021/10/07 04:48:30;;;;;;;;;;;8.10;99.90;;;;;;5063738;28;19951;-86
2021/10/07 04:50:55;;;;;;;;;;;8.10;99.90;;;;;;5053908;28;20004;-86
2021/10/07 04:53:21;;;;;;;;;;;8.10;99.90;;;;;;5054243;28;19909;-85
2021/10/07 04:55:46;;;;;;;;;;;8.10;99.90;;;;;;5070443;28;19909;-86
2021/10/07 04:58:12;;;;;;;;;;;8.10;99.90;;;;;;5058760;28;19991;-86
2021/10/07 05:00:37;;;;;;;;;;;8.10;99.90;;;;;;5042855;28;19959;-85
2021/10/07 05:03:03;;;;;;;;;;;8.10;99.90;;;;;;5051889;28;20327;-86
2021/10/07 05:05:28;;;;;;;;;;;8.10;99.90;;;;;;5074890;28;19916;-86
2021/10/07 05:07:54;;;;;;;;;;;8.10;99.90;;;;;;5063139;28;19915;-86
2021/10/07 05:10:19;;;;;;;;;;;8.10;99.90;;;;;;5057986;28;19938;-85
2021/10/07 05:12:45;;;;;;;;;;;8.10;99.90;;;;;;5075836;28;19908;-86
2021/10/07 05:15:10;;;;;;;;;;;8.10;99.90;;;;;;5045667;28;20301;-86
2021/10/07 05:17:36;;;;;;;;;;;8.10;99.90;;;;;;5063053;28;20279;-86
2021/10/07 05:20:03;;;;;;;;;;;8.20;99.90;;;;;;5051882;28;19913;-86
2021/10/07 05:22:29;;;;;;;;;;;8.20;99.90;;;;;;5051376;28;19912;-86
2021/10/07 05:24:54;;;;;;;;;;;8.10;99.90;;;;;;5054110;28;20003;-87
2021/10/07 05:27:20;;;;;;;;;;;8.10;99.90;;;;;;5057919;28;20379;-86
2021/10/07 05:29:45;;;;;;;;;;;8.10;99.90;;;;;;5057538;28;19920;-86
2021/10/07 05:32:11;;;;;;;;;;;8.20;99.90;;;;;;5057462;28;19939;-86
2021/10/07 05:34:36;;;;;;;;;;;8.10;99.90;;;;;;5057720;28;19908;-86
2021/10/07 05:37:02;;;;;;;;;;;8.10;99.90;;;;;;5057519;28;19983;-85
2021/10/07 05:39:28;;;;;;;;;;;8.20;99.90;;;;;;5057446;28;19916;-86
2021/10/07 05:41:53;;;;;;;;;;;8.10;99.90;;;;;;5075298;28;19909;-86
2021/10/07 05:44:19;;;;;;;;;;;8.10;99.90;;;;;;5083936;28;20369;-86
2021/10/07 05:46:44;;;;;;;;;;;8.10;99.90;;;;;;5055885;28;19909;-85
2021/10/07 05:49:10;;;;;;;;;;;8.20;99.90;;;;;;5050600;28;19970;-86
2021/10/07 05:51:35;;;;;;;;;;;8.20;99.90;;;;;;5057660;28;19916;-86
2021/10/07 05:54:01;;;;;;;;;;;8.10;99.90;;;;;;5057275;28;19909;-85
2021/10/07 05:56:26;;;;;;;;;;;8.20;99.90;;;;;;5073888;28;19908;-86
2021/10/07 05:58:52;;;;;;;;;;;8.20;99.90;;;;;;5057589;28;20489;-86
2021/10/07 06:01:17;;;;;;;;;;;8.30;99.90;;;;;;5056997;28;19915;-86
2021/10/07 06:03:43;;;;;;;;;;;8.30;99.90;;;;;;5074605;28;19920;-86
2021/10/07 06:06:08;;;;;;;;;;;8.30;99.90;;;;;;5056569;28;19916;-86
2021/10/07 06:08:34;;;;;;;;;;;8.30;99.90;;;;;;5039317;28;20447;-86
2021/10/07 06:10:59;;;;;;;;;;;8.30;99.90;;;;;;5054916;28;20295;-86
2021/10/07 06:13:25;;;;;;;;;;;8.40;99.90;;;;;;5057618;28;19908;-84
2021/10/07 06:15:51;;;;;;;;;;;8.40;99.90;;;;;;5042204;28;20293;-86
2021/10/07 06:18:16;;;;;;;;;;;8.40;99.90;;;;;;5054185;28;19909;-86
2021/10/07 06:20:42;;;;;;;;;;;8.40;99.90;;;;;;5056456;28;20042;-86
2021/10/07 06:23:08;;;;;;;;;;;8.50;99.90;;;;;;5056560;28;19908;-87
2021/10/07 06:25:34;;;;;;;;;;;8.60;99.90;;;;;;5063872;28;19909;-87
2021/10/07 06:28:01;;;;;;;;;;;8.60;99.90;;;;;;5052818;28;19923;-87
2021/10/07 06:30:26;;;;;;;;;;;8.60;99.90;;;;;;5046595;28;20350;-87
2021/10/07 06:32:52;;;;;;;;;;;8.60;99.90;;;;;;5062822;28;19917;-87
2021/10/07 06:35:18;;;;;;;;;;;8.70;99.90;;;;;;5054865;28;19943;-86
2021/10/07 06:37:43;;;;;;;;;;;8.70;99.90;;;;;;5055594;28;19909;-87
2021/10/07 06:40:09;;;;;;;;;;;8.80;99.90;;;;;;5045733;28;19967;-87
2021/10/07 06:42:35;;;;;;;;;;;8.80;99.90;;;;;;5041602;28;19956;-87
2021/10/07 06:45:04;;;;;;;;;;;8.90;99.90;;;;;;5058545;28;19916;-87
2021/10/07 06:47:30;;;;;;;;;;;8.90;99.90;;;;;;5047063;28;19913;-87
2021/10/07 06:49:56;;;;;;;;;;;9.00;99.90;;;;;;5050571;28;19920;-87
2021/10/07 06:52:21;;;;;;;;;;;9.00;99.90;;;;;;5055175;28;19935;-88
2021/10/07 06:54:47;;;;;;;;;;;9.00;99.90;;;;;;5049949;28;19908;-87
2021/10/07 06:57:12;;;;;;;;;;;9.10;99.90;;;;;;5048710;28;19944;-87
2021/10/07 06:59:38;;;;;;;;;;;9.10;99.90;;;;;;5043185;28;20402;-89
2021/10/07 07:02:03;;;;;;;;;;;9.10;99.90;;;;;;5054075;28;20416;-88
2021/10/07 07:04:29;;;;;;;;;;;9.20;99.90;;;;;;5071339;28;19912;-88
2021/10/07 07:06:55;;;;;;;;;;;9.30;99.90;;;;;;5048872;28;19909;-87
2021/10/07 07:09:20;;;;;;;;;;;9.30;99.90;;;;;;5046527;28;19913;-87
2021/10/07 07:11:46;;;;;;;;;;;9.50;99.90;;;;;;5073939;28;19916;-88
2021/10/07 07:14:11;;;;;;;;;;;9.60;99.90;;;;;;5053554;28;19913;-86
2021/10/07 07:16:37;;;;;;;;;;;9.50;99.90;;;;;;5053832;28;19935;-89
2021/10/07 07:19:03;;;;;;;;;;;9.60;99.90;;;;;;5060967;28;19916;-87
2021/10/07 07:21:31;;;;;;;;;;;9.70;99.90;;;;;;5054542;28;19908;-88
2021/10/07 07:23:58;;;;;;;;;;;9.60;99.90;;;;;;5063748;28;19908;-87
2021/10/07 07:26:24;;;;;;;;;;;9.70;99.90;;;;;;5049122;28;19915;-87
2021/10/07 07:28:50;;;;;;;;;;;9.80;99.90;;;;;;5055631;28;20379;-87
2021/10/07 07:31:17;;;;;;;;;;;9.90;99.90;;;;;;5038401;28;19948;-87
2021/10/07 07:33:45;;;;;;;;;;;9.80;99.90;;;;;;5044985;28;19980;-88
2021/10/07 07:36:11;;;;;;;;;;;10.00;99.90;;;;;;5053906;28;19961;-87
2021/10/07 07:38:36;;;;;;;;;;;10.00;99.90;;;;;;5057735;28;20085;-88
2021/10/07 07:41:02;;;;;;;;;;;10.00;99.90;;;;;;5055154;28;19909;-87
2021/10/07 07:43:27;;;;;;;;;;;10.00;99.90;;;;;;5055008;28;20349;-88
2021/10/07 07:45:53;;;;;;;;;;;10.10;99.90;;;;;;5037988;28;19909;-87
2021/10/07 07:48:18;;;;;;;;;;;10.20;99.90;;;;;;5053844;28;19931;-87
2021/10/07 07:50:44;;;;;;;;;;;10.20;99.90;;;;;;5045547;28;19912;-88
2021/10/07 07:53:12;;;;;;;;;;;10.30;99.90;;;;;;5055288;28;20390;-88
2021/10/07 07:55:38;;;;;;;;;;;10.40;99.90;;;;;;5062776;28;19963;-87
2021/10/07 07:58:04;;;;;;;;;;;10.60;99.90;;;;;;5047634;28;19952;-87
2021/10/07 08:00:37;;;;;;;;;;;10.70;99.90;;;;;;5048831;28;20003;-88
2021/10/07 08:03:03;;;;;;;;;;;10.90;99.90;;;;;;5056571;28;20292;-85
2021/10/07 08:05:28;;;;;;;;;;;11.00;99.90;;;;;;5058988;28;19908;-86
2021/10/07 08:07:54;;;;;;;;;;;11.20;99.90;;;;;;5072728;28;19909;-88
2021/10/07 08:10:25;;;;;;;;;;;11.30;99.90;;;;;;5039052;28;20289;-87
2021/10/07 08:12:51;;;;;;;;;;;11.30;99.90;;;;;;5045241;28;19909;-88
2021/10/07 08:15:17;;;;;;;;;;;11.40;99.90;;;;;;5055106;28;20427;-88
2021/10/07 08:17:42;;;;;;;;;;;11.10;99.90;;;;;;5039816;28;19915;-89
2021/10/07 08:20:08;;;;;;;;;;;11.20;99.90;;;;;;5051468;28;19913;-86
2021/10/07 08:22:34;;;;;;;;;;;11.30;99.90;;;;;;5069945;28;20000;-86
2021/10/07 08:25:00;;;;;;;;;;;11.30;99.90;;;;;;5066105;28;19951;-86
2021/10/07 08:27:26;;;;;;;;;;;11.30;99.90;;;;;;5050584;28;19908;-85
2021/10/07 08:29:52;;;;;;;;;;;11.50;99.90;;;;;;5069794;28;19919;-86
2021/10/07 08:32:18;;;;;;;;;;;11.50;99.90;;;;;;5044843;28;19909;-85
2021/10/07 08:34:47;;;;;;;;;;;11.50;99.90;;;;;;5067352;28;19917;-88
2021/10/07 08:37:13;;;;;;;;;;;11.40;99.90;;;;;;5071652;28;19954;-88
2021/10/07 08:39:39;;;;;;;;;;;11.60;99.90;;;;;;5060860;28;19913;-86
2021/10/07 08:42:04;;;;;;;;;;;11.50;99.90;;;;;;5051131;28;19909;-90
2021/10/07 08:44:30;;;;;;;;;;;11.50;99.90;;;;;;5063648;28;20038;-87
2021/10/07 08:46:57;;;;;;;;;;;11.50;99.90;;;;;;5035919;28;19909;-87
2021/10/07 08:49:25;;;;;;;;;;;11.60;99.90;;;;;;5071699;28;20379;-87
2021/10/07 08:51:51;;;;;;;;;;;11.60;99.90;;;;;;5059843;28;20033;-86
2021/10/07 08:54:17;;;;;;;;;;;11.90;99.90;;;;;;5048110;28;19916;-86
2021/10/07 08:56:43;;;;;;;;;;;11.90;99.90;;;;;;5041568;28;19964;-87
2021/10/07 08:59:08;;;;;;;;;;;12.00;99.90;;;;;;5049833;28;20316;-87
2021/10/07 09:01:44;;;;;;;;;;;12.10;99.90;;;;;;5041835;28;19916;-88
2021/10/07 09:04:28;;;;;;;;;;;12.10;99.90;;;;;;5053074;28;19912;-88
2021/10/07 09:06:59;;;;;;;;;;;12.20;99.90;;;;;;5051554;28;20003;-86
2021/10/07 09:09:27;;;;;;;;;;;12.20;99.90;;;;;;5072062;28;19974;-88
2021/10/07 09:11:59;;;;;;;;;;;12.00;99.90;;;;;;5050114;28;19963;-88
2021/10/07 09:14:27;;;;;;;;;;;11.90;99.90;;;;;;5041722;28;19909;-89
2021/10/07 09:16:54;;;;;;;;;;;11.70;99.90;;;;;;5065953;28;20253;-86
2021/10/07 09:19:21;;;;;;;;;;;11.70;99.90;;;;;;5054285;28;19955;-87
2021/10/07 09:21:48;;;;;;;;;;;12.00;99.90;;;;;;5054364;28;20390;-86
2021/10/07 09:24:26;;;;;;;;;;;12.00;99.90;;;;;;5052895;28;19966;-86
2021/10/07 09:26:52;;;;;;;;;;;12.20;99.90;;;;;;5045871;28;19931;-87
2021/10/07 09:29:29;;;;;;;;;;;12.10;99.90;;;;;;5057705;28;20365;-87
2021/10/07 09:31:54;;;;;;;;;;;12.40;99.90;;;;;;5048260;28;19909;-87
2021/10/07 09:34:35;;;;;;;;;;;12.50;99.90;;;;;;5048234;28;20010;-90
2021/10/07 09:37:01;;;;;;;;;;;12.30;99.90;;;;;;5052775;28;20349;-86
2021/10/07 09:39:31;;;;;;;;;;;12.40;99.90;;;;;;5041127;28;19908;-88
2021/10/07 09:42:04;;;;;;;;;;;12.30;99.90;;;;;;5067884;28;19966;-86
2021/10/07 09:44:29;;;;;;;;;;;12.20;99.90;;;;;;5043362;28;19982;-89
2021/10/07 09:46:55;;;;;;;;;;;12.20;99.90;;;;;;5062192;28;19912;-87
2021/10/07 09:49:22;;;;;;;;;;;12.30;99.90;;;;;;5044931;28;19909;-88
2021/10/07 09:51:49;;;;;;;;;;;12.10;99.90;;;;;;5051841;28;19914;-87
2021/10/07 09:54:18;;;;;;;;;;;12.10;99.90;;;;;;5051289;28;19909;-86
2021/10/07 09:56:52;;;;;;;;;;;12.30;99.90;;;;;;5053156;28;19920;-88
2021/10/07 09:59:22;;;;;;;;;;;12.80;99.90;;;;;;5055006;28;19908;-87
2021/10/07 10:01:47;;;;;;;;;;;12.50;99.90;;;;;;5065101;28;19996;-88
2021/10/07 10:04:13;;;;;;;;;;;12.50;99.90;;;;;;5066998;28;19962;-86
2021/10/07 10:06:42;;;;;;;;;;;12.50;99.90;;;;;;5052233;28;19908;-86
2021/10/07 10:09:07;;;;;;;;;;;12.50;99.90;;;;;;5051561;28;20356;-86
2021/10/07 10:11:38;;;;;;;;;;;12.50;99.90;;;;;;5062118;28;19958;-88
2021/10/07 10:14:06;;;;;;;;;;;12.10;99.90;;;;;;5046666;28;19995;-86
2021/10/07 10:16:35;;;;;;;;;;;12.20;99.90;;;;;;5056443;28;19909;-85
2021/10/07 10:19:02;;;;;;;;;;;12.50;99.90;;;;;;5059573;28;19915;-87
2021/10/07 10:21:32;;;;;;;;;;;12.80;99.90;;;;;;5057137;28;19908;-87
2021/10/07 10:23:58;;;;;;;;;;;12.70;99.90;;;;;;5056779;28;19916;-87
2021/10/07 10:26:24;;;;;;;;;;;12.80;99.90;;;;;;5045406;28;19909;-87
2021/10/07 10:28:51;;;;;;;;;;;12.50;99.90;;;;;;5053790;28;20288;-87
2021/10/07 10:31:34;;;;;;;;;;;12.60;99.90;;;;;;5075233;28;19971;-86
2021/10/07 10:34:03;;;;;;;;;;;12.30;99.90;;;;;;5050280;28;19996;-87
2021/10/07 10:36:31;;;;;;;;;;;12.30;99.90;;;;;;5055760;28;19909;-87
2021/10/07 10:39:01;;;;;;;;;;;12.30;99.90;;;;;;5050225;28;20046;-86
2021/10/07 10:41:53;;;;;;;;;;;12.10;99.90;;;;;;5053914;28;19996;-88
2021/10/07 10:44:27;;;;;;;;;;;12.30;99.90;;;;;;5057462;28;19909;-86
2021/10/07 10:47:05;;;;;;;;;;;12.60;99.90;;;;;;5054080;28;19909;-87
2021/10/07 10:49:46;;;;;;;;;;;12.40;99.90;;;;;;5043407;28;19961;-87
2021/10/07 10:52:25;;;;;;;;;;;12.70;99.90;;;;;;5074565;28;19916;-87
2021/10/07 10:54:56;;;;;;;;;;;12.60;99.90;;;;;;5052055;28;19916;-86
2021/10/07 10:57:24;;;;;;;;;;;12.70;99.90;;;;;;5063002;28;19935;-87
2021/10/07 11:00:01;;;;;;;;;;;12.70;99.90;;;;;;5077692;28;19912;-87
2021/10/07 11:02:26;;;;;;;;;;;12.50;99.90;;;;;;5043572;28;19915;-87
2021/10/07 11:04:53;;;;;;;;;;;12.70;99.90;;;;;;5057425;28;20295;-90
2021/10/07 11:07:23;;;;;;;;;;;12.70;99.90;;;;;;5065044;28;20007;-89
2021/10/07 11:09:56;;;;;;;;;;;12.90;99.90;;;;;;5043395;28;19916;-88
2021/10/07 11:12:40;;;;;;;;;;;13.00;99.90;;;;;;5056697;28;19909;-87
2021/10/07 11:15:09;;;;;;;;;;;13.20;99.90;;;;;;5074732;28;19909;-88
2021/10/07 11:17:45;;;;;;;;;;;14.00;99.90;;;;;;5072613;28;19908;-87
2021/10/07 11:20:18;;;;;;;;;;;14.10;99.90;;;;;;5049740;28;19909;-88
2021/10/07 11:23:02;;;;;;;;;;;13.80;99.90;;;;;;5053023;28;20287;-86
2021/10/07 11:25:28;;;;;;;;;;;13.70;99.90;;;;;;5065464;28;19912;-88
2021/10/07 11:27:53;;;;;;;;;;;13.70;99.90;;;;;;5052044;28;20437;-87
2021/10/07 11:30:20;;;;;;;;;;;13.70;99.90;;;;;;5054328;28;19913;-86
2021/10/07 11:32:46;;;;;;;;;;;13.50;99.90;;;;;;5047984;28;19908;-87
2021/10/07 11:35:13;;;;;;;;;;;13.70;99.90;;;;;;5044865;28;19974;-88
2021/10/07 11:37:42;;;;;;;;;;;14.00;99.90;;;;;;5054034;28;19954;-87
2021/10/07 11:40:23;;;;;;;;;;;13.80;99.90;;;;;;5057543;28;19912;-87
2021/10/07 11:42:48;;;;;;;;;;;13.80;99.90;;;;;;5082672;28;19913;-86
2021/10/07 11:45:37;;;;;;;;;;;13.50;99.90;;;;;;5055845;28;20280;-86
2021/10/07 11:48:08;;;;;;;;;;;13.70;99.90;;;;;;5065866;28;19913;-88
2021/10/07 11:50:48;;;;;;;;;;;13.90;99.90;;;;;;5052392;28;19954;-87
2021/10/07 11:53:17;;;;;;;;;;;13.70;99.90;;;;;;5055144;28;19908;-87
2021/10/07 11:55:45;;;;;;;;;;;13.80;99.90;;;;;;5054764;28;19908;-88
2021/10/07 11:58:11;;;;;;;;;;;14.10;99.90;;;;;;5039256;28;19920;-88
2021/10/07 12:00:36;;;;;;;;;;;14.20;99.90;;;;;;5048049;28;19954;-88
2021/10/07 12:03:12;;;;;;;;;;;14.20;99.90;;;;;;5046385;28;19908;-86
2021/10/07 12:05:38;;;;;;;;;;;14.20;99.90;;;;;;5043236;28;20320;-87
2021/10/07 12:08:05;;;;;;;;;;;14.00;99.90;;;;;;5075736;28;19958;-87
2021/10/07 12:10:36;;;;;;;;;;;13.50;99.90;;;;;;5055226;28;19935;-85
2021/10/07 12:13:18;;;;;;;;;;;13.40;99.90;;;;;;5055234;28;20318;-87
2021/10/07 12:15:49;;;;;;;;;;;13.30;99.90;;;;;;5048590;28;19908;-86
2021/10/07 12:18:15;;;;;;;;;;;13.30;99.90;;;;;;5072457;28;19909;-88
2021/10/07 12:21:05;;;;;;;;;;;13.40;99.90;;;;;;5035683;28;20003;-86
2021/10/07 12:23:44;;;;;;;;;;;13.40;99.90;;;;;;5046360;28;19909;-87
2021/10/07 12:26:10;;;;;;;;;;;13.30;99.90;;;;;;5037336;28;19943;-88
2021/10/07 12:28:54;;;;;;;;;;;13.40;99.90;;;;;;5066870;28;19912;-88
2021/10/07 12:31:23;;;;;;;;;;;13.40;99.90;;;;;;5056810;28;19912;-87
2021/10/07 12:33:58;;;;;;;;;;;13.50;99.90;;;;;;5065721;28;19909;-86
2021/10/07 12:36:31;;;;;;;;;;;13.40;99.90;;;;;;5051274;28;19913;-86
2021/10/07 12:38:56;;;;;;;;;;;13.50;99.90;;;;;;5052427;28;19908;-85
2021/10/07 12:41:51;;;;;;;;;;;13.90;99.90;;;;;;5071129;28;20291;-87
2021/10/07 12:44:22;;;;;;;;;;;14.00;99.90;;;;;;5052336;28;20257;-86
2021/10/07 12:46:49;;;;;;;;;;;14.00;99.90;;;;;;5044673;28;19916;-88
2021/10/07 12:49:37;;;;;;;;;;;14.00;99.90;;;;;;5074938;28;19909;-88
2021/10/07 12:52:24;;;;;;;;;;;14.00;99.90;;;;;;5041710;28;19909;-87
2021/10/07 12:54:51;;;;;;;;;;;14.00;99.90;;;;;;5047428;28;19912;-88
2021/10/07 12:57:35;;;;;;;;;;;14.00;99.90;;;;;;5051730;28;20288;-86
2021/10/07 13:00:00;;;;;;;;;;;13.90;99.90;;;;;;5070588;28;20299;-86
2021/10/07 13:02:30;;;;;;;;;;;14.20;99.90;;;;;;5043037;28;19909;-87
2021/10/07 13:04:56;;;;;;;;;;;14.10;99.90;;;;;;5065208;28;19916;-86
2021/10/07 13:07:25;;;;;;;;;;;14.30;99.90;;;;;;5052116;28;19909;-87
2021/10/07 13:09:51;;;;;;;;;;;14.30;99.90;;;;;;5047664;28;20481;-87
2021/10/07 13:12:19;;;;;;;;;;;14.20;99.90;;;;;;5047882;28;19909;-88
2021/10/07 13:14:58;;;;;;;;;;;14.40;99.90;;;;;;5067779;28;19998;-90
2021/10/07 13:17:24;;;;;;;;;;;14.00;99.90;;;;;;5061197;28;19908;-88
2021/10/07 13:19:49;;;;;;;;;;;13.90;99.90;;;;;;5044081;28;20368;-87
2021/10/07 13:22:15;;;;;;;;;;;14.10;99.90;;;;;;5055477;28;20380;-87
2021/10/07 13:24:41;;;;;;;;;;;13.70;99.90;;;;;;5040489;28;19915;-86
2021/10/07 13:27:10;;;;;;;;;;;13.60;99.90;;;;;;5040475;28;20841;-87
2021/10/07 13:29:37;;;;;;;;;;;13.50;99.90;;;;;;5048097;28;19913;-87
2021/10/07 13:32:02;;;;;;;;;;;13.40;99.90;;;;;;5051438;28;20000;-87
2021/10/07 13:34:28;;;;;;;;;;;13.50;99.90;;;;;;5048379;28;20364;-88
2021/10/07 13:36:53;;;;;;;;;;;13.40;99.90;;;;;;5058019;28;19996;-86
2021/10/07 13:39:19;;;;;;;;;;;13.30;99.90;;;;;;5057886;28;19915;-87
2021/10/07 13:41:45;;;;;;;;;;;13.30;99.90;;;;;;5057972;28;19944;-91
2021/10/07 13:44:10;;;;;;;;;;;13.30;99.90;;;;;;5044127;28;20410;-89
2021/10/07 13:46:36;;;;;;;;;;;13.30;99.90;;;;;;5038620;28;19909;-90
2021/10/07 13:49:02;;;;;;;;;;;13.10;99.90;;;;;;5043301;28;19908;-87
2021/10/07 13:51:27;;;;;;;;;;;13.00;99.90;;;;;;5075369;28;19999;-87
2021/10/07 13:53:53;;;;;;;;;;;13.00;99.90;;;;;;5056909;28;19909;-86
2021/10/07 13:56:21;;;;;;;;;;;13.00;99.90;;;;;;5061231;28;19909;-86
2021/10/07 13:58:47;;;;;;;;;;;13.00;99.90;;;;;;5050789;28;19913;-88
2021/10/07 14:01:12;;;;;;;;;;;12.80;99.90;;;;;;5041788;28;20436;-86
2021/10/07 14:03:38;;;;;;;;;;;12.70;99.90;;;;;;5043724;28;19917;-86
2021/10/07 14:06:04;;;;;;;;;;;12.80;99.90;;;;;;5053882;28;20365;-86
2021/10/07 14:08:31;;;;;;;;;;;12.80;99.90;;;;;;5054968;28;21620;-88
2021/10/07 14:11:04;;;;;;;;;;;12.70;99.90;;;;;;5037667;28;19916;-87
2021/10/07 14:13:29;;;;;;;;;;;12.70;99.90;;;;;;5048478;28;20361;-87
2021/10/07 14:15:55;;;;;;;;;;;12.60;99.90;;;;;;5042472;28;19909;-88
2021/10/07 14:18:21;;;;;;;;;;;12.70;99.90;;;;;;5044291;28;19959;-86
2021/10/07 14:20:46;;;;;;;;;;;12.80;99.90;;;;;;5068429;28;19931;-87
2021/10/07 14:23:12;;;;;;;;;;;12.80;99.90;;;;;;5044170;28;20339;-86
2021/10/07 14:25:38;;;;;;;;;;;12.70;99.90;;;;;;5053445;28;19909;-88
2021/10/07 14:28:04;;;;;;;;;;;12.80;99.90;;;;;;5035902;28;19912;-87
2021/10/07 14:30:37;;;;;;;;;;;12.70;99.90;;;;;;5043732;28;20447;-86